sensor_id;sensor_type;location;lat;lon;timestamp;pressure;altitude;pressure_sealevel;temperature;humidity
29383;BME280;16365;51.598;7.668;2023-06-01T00:02:18;101548.63;;;22.47;37.33
29383;BME280;16365;51.598;7.668;2023-06-01T00:04:44;101548.16;;;22.42;37.59
29383;BME280;16365;51.598;7.668;2023-06-01T00:07:11;101553.38;;;22.36;37.63
29383;BME280;16365;51.598;7.668;2023-06-01T00:09:37;101559.75;;;22.29;37.80
29383;BME280;16365;51.598;7.668;2023-06-01T00:12:04;101555.63;;;22.20;37.99
29383;BME280;16365;51.598;7.668;2023-06-01T00:14:32;101558.34;;;22.13;38.06
29383;BME280;16365;51.598;7.668;2023-06-01T00:16:59;101553.38;;;22.02;38.16
29383;BME280;16365;51.598;7.668;2023-06-01T00:19:25;101553.31;;;21.95;38.25
29383;BME280;16365;51.598;7.668;2023-06-01T00:21:54;101559.28;;;21.90;38.62
29383;BME280;16365;51.598;7.668;2023-06-01T00:24:23;101550.34;;;21.85;38.67
29383;BME280;16365;51.598;7.668;2023-06-01T00:26:51;101556.31;;;21.79;38.67
29383;BME280;16365;51.598;7.668;2023-06-01T00:29:18;101553.84;;;21.74;38.90
29383;BME280;16365;51.598;7.668;2023-06-01T00:31:44;101545.31;;;21.71;39.42
29383;BME280;16365;51.598;7.668;2023-06-01T00:34:13;101552.16;;;21.66;39.45
29383;BME280;16365;51.598;7.668;2023-06-01T00:36:39;101551.69;;;21.64;39.31
29383;BME280;16365;51.598;7.668;2023-06-01T00:39:06;101549.63;;;21.61;39.18
29383;BME280;16365;51.598;7.668;2023-06-01T00:41:32;101544.31;;;21.56;39.18
29383;BME280;16365;51.598;7.668;2023-06-01T00:44:00;101541.84;;;21.51;39.37
29383;BME280;16365;51.598;7.668;2023-06-01T00:46:29;101538.94;;;21.44;39.60
29383;BME280;16365;51.598;7.668;2023-06-01T00:48:57;101542.50;;;21.37;39.80
29383;BME280;16365;51.598;7.668;2023-06-01T00:51:25;101518.97;;;21.29;39.61
29383;BME280;16365;51.598;7.668;2023-06-01T00:53:51;101541.06;;;21.24;39.54
29383;BME280;16365;51.598;7.668;2023-06-01T00:56:18;101533.66;;;21.16;39.84
29383;BME280;16365;51.598;7.668;2023-06-01T00:58:45;101538.03;;;21.10;39.86
29383;BME280;16365;51.598;7.668;2023-06-01T01:01:12;101538.34;;;21.04;39.97
29383;BME280;16365;51.598;7.668;2023-06-01T01:03:49;101538.22;;;20.97;40.56
29383;BME280;16365;51.598;7.668;2023-06-01T01:06:37;101535.69;;;20.89;40.79
29383;BME280;16365;51.598;7.668;2023-06-01T01:11:52;101549.97;;;20.76;40.71
29383;BME280;16365;51.598;7.668;2023-06-01T01:14:25;101534.13;;;20.68;40.79
29383;BME280;16365;51.598;7.668;2023-06-01T01:17:01;101547.25;;;20.57;41.49
29383;BME280;16365;51.598;7.668;2023-06-01T01:25:05;101545.16;;;20.31;41.52
29383;BME280;16365;51.598;7.668;2023-06-01T01:30:29;101539.97;;;20.14;41.41
29383;BME280;16365;51.598;7.668;2023-06-01T01:32:57;101545.84;;;20.05;41.73
29383;BME280;16365;51.598;7.668;2023-06-01T01:35:25;101546.06;;;19.96;41.62
29383;BME280;16365;51.598;7.668;2023-06-01T01:37:54;101543.50;;;19.88;41.96
29383;BME280;16365;51.598;7.668;2023-06-01T01:40:21;101548.53;;;19.79;42.16
29383;BME280;16365;51.598;7.668;2023-06-01T01:42:50;101545.94;;;19.70;42.39
29383;BME280;16365;51.598;7.668;2023-06-01T01:45:20;101546.63;;;19.63;42.03
29383;BME280;16365;51.598;7.668;2023-06-01T01:47:54;101541.19;;;19.55;42.44
29383;BME280;16365;51.598;7.668;2023-06-01T01:50:26;101540.66;;;19.49;42.37
29383;BME280;16365;51.598;7.668;2023-06-01T01:52:54;101543.75;;;19.44;42.42
29383;BME280;16365;51.598;7.668;2023-06-01T01:55:23;101560.16;;;19.42;41.21
29383;BME280;16365;51.598;7.668;2023-06-01T01:57:51;101546.50;;;19.40;42.17
29383;BME280;16365;51.598;7.668;2023-06-01T02:00:19;101551.59;;;19.35;41.92
29383;BME280;16365;51.598;7.668;2023-06-01T02:02:46;101551.03;;;19.29;42.21
29383;BME280;16365;51.598;7.668;2023-06-01T02:05:13;101547.69;;;19.23;42.48
29383;BME280;16365;51.598;7.668;2023-06-01T02:07:39;101555.63;;;19.18;42.42
29383;BME280;16365;51.598;7.668;2023-06-01T02:10:06;101559.53;;;19.13;42.45
29383;BME280;16365;51.598;7.668;2023-06-01T02:12:33;101559.44;;;19.10;42.47
29383;BME280;16365;51.598;7.668;2023-06-01T02:14:59;101563.00;;;19.07;42.09
29383;BME280;16365;51.598;7.668;2023-06-01T02:17:26;101561.66;;;19.00;42.63
29383;BME280;16365;51.598;7.668;2023-06-01T02:19:53;101564.38;;;18.97;42.58
29383;BME280;16365;51.598;7.668;2023-06-01T02:22:22;101568.34;;;18.96;41.70
29383;BME280;16365;51.598;7.668;2023-06-01T02:24:48;101566.28;;;18.93;42.65
29383;BME280;16365;51.598;7.668;2023-06-01T02:27:15;101566.09;;;18.86;42.42
29383;BME280;16365;51.598;7.668;2023-06-01T02:29:41;101570.34;;;18.80;42.54
29383;BME280;16365;51.598;7.668;2023-06-01T02:32:08;101570.63;;;18.74;42.76
29383;BME280;16365;51.598;7.668;2023-06-01T02:34:35;101563.66;;;18.68;43.09
29383;BME280;16365;51.598;7.668;2023-06-01T02:37:05;101560.72;;;18.65;43.82
29383;BME280;16365;51.598;7.668;2023-06-01T02:39:31;101567.97;;;18.66;43.54
29383;BME280;16365;51.598;7.668;2023-06-01T02:41:57;101561.53;;;18.65;43.50
29383;BME280;16365;51.598;7.668;2023-06-01T02:44:24;101557.09;;;18.64;43.08
29383;BME280;16365;51.598;7.668;2023-06-01T02:46:52;101561.91;;;18.64;43.33
29383;BME280;16365;51.598;7.668;2023-06-01T02:49:19;101571.13;;;18.64;43.42
29383;BME280;16365;51.598;7.668;2023-06-01T02:51:46;101569.50;;;18.63;43.33
29383;BME280;16365;51.598;7.668;2023-06-01T02:54:12;101567.41;;;18.60;43.17
29383;BME280;16365;51.598;7.668;2023-06-01T02:56:39;101572.59;;;18.58;43.20
29383;BME280;16365;51.598;7.668;2023-06-01T02:59:05;101567.25;;;18.53;42.97
29383;BME280;16365;51.598;7.668;2023-06-01T03:01:33;101562.72;;;18.48;43.26
29383;BME280;16365;51.598;7.668;2023-06-01T03:04:02;101557.81;;;18.45;42.39
29383;BME280;16365;51.598;7.668;2023-06-01T03:06:30;101559.38;;;18.43;42.79
29383;BME280;16365;51.598;7.668;2023-06-01T03:08:58;101562.44;;;18.38;43.20
29383;BME280;16365;51.598;7.668;2023-06-01T03:11:25;101564.66;;;18.32;43.10
29383;BME280;16365;51.598;7.668;2023-06-01T03:13:51;101562.13;;;18.27;43.33
29383;BME280;16365;51.598;7.668;2023-06-01T03:16:18;101563.19;;;18.22;43.74
29383;BME280;16365;51.598;7.668;2023-06-01T03:18:44;101566.75;;;18.19;43.09
29383;BME280;16365;51.598;7.668;2023-06-01T03:21:11;101562.66;;;18.17;43.79
29383;BME280;16365;51.598;7.668;2023-06-01T03:23:37;101569.81;;;18.14;43.27
29383;BME280;16365;51.598;7.668;2023-06-01T03:26:10;101568.53;;;18.12;43.09
29383;BME280;16365;51.598;7.668;2023-06-01T03:28:39;101572.06;;;18.09;43.60
29383;BME280;16365;51.598;7.668;2023-06-01T03:31:06;101569.59;;;18.07;43.28
29383;BME280;16365;51.598;7.668;2023-06-01T03:33:33;101569.97;;;18.06;43.19
29383;BME280;16365;51.598;7.668;2023-06-01T03:36:00;101567.06;;;18.02;43.45
29383;BME280;16365;51.598;7.668;2023-06-01T03:38:28;101561.34;;;17.98;43.48
29383;BME280;16365;51.598;7.668;2023-06-01T03:40:54;101568.50;;;17.96;43.24
29383;BME280;16365;51.598;7.668;2023-06-01T03:43:20;101559.63;;;17.94;43.49
29383;BME280;16365;51.598;7.668;2023-06-01T03:45:47;101572.00;;;17.93;43.81
29383;BME280;16365;51.598;7.668;2023-06-01T03:48:14;101572.38;;;17.91;43.46
29383;BME280;16365;51.598;7.668;2023-06-01T03:50:41;101569.56;;;17.91;43.50
29383;BME280;16365;51.598;7.668;2023-06-01T03:53:07;101571.56;;;17.91;43.40
29383;BME280;16365;51.598;7.668;2023-06-01T03:55:34;101565.13;;;17.90;43.49
29383;BME280;16365;51.598;7.668;2023-06-01T03:58:02;101564.31;;;17.90;43.01
29383;BME280;16365;51.598;7.668;2023-06-01T04:00:29;101570.28;;;17.88;43.48
29383;BME280;16365;51.598;7.668;2023-06-01T04:02:58;101575.44;;;17.86;43.67
29383;BME280;16365;51.598;7.668;2023-06-01T04:05:27;101573.00;;;17.85;43.65
29383;BME280;16365;51.598;7.668;2023-06-01T04:07:55;101573.69;;;17.82;43.64
29383;BME280;16365;51.598;7.668;2023-06-01T04:10:22;101581.28;;;17.81;43.55
29383;BME280;16365;51.598;7.668;2023-06-01T04:12:49;101582.94;;;17.82;43.31
29383;BME280;16365;51.598;7.668;2023-06-01T04:15:20;101577.69;;;17.81;44.03
29383;BME280;16365;51.598;7.668;2023-06-01T04:17:47;101572.06;;;17.81;43.60
29383;BME280;16365;51.598;7.668;2023-06-01T04:20:15;101574.41;;;17.79;43.87
29383;BME280;16365;51.598;7.668;2023-06-01T04:22:43;101571.25;;;17.80;43.76
29383;BME280;16365;51.598;7.668;2023-06-01T04:25:12;101580.50;;;17.81;43.75
29383;BME280;16365;51.598;7.668;2023-06-01T04:27:43;101580.13;;;17.82;43.90
29383;BME280;16365;51.598;7.668;2023-06-01T04:30:15;101578.59;;;17.85;44.19
29383;BME280;16365;51.598;7.668;2023-06-01T04:32:43;101574.63;;;17.86;43.71
29383;BME280;16365;51.598;7.668;2023-06-01T04:35:10;101587.09;;;17.88;43.65
29383;BME280;16365;51.598;7.668;2023-06-01T04:37:38;101575.88;;;17.88;43.75
29383;BME280;16365;51.598;7.668;2023-06-01T04:40:09;101581.50;;;17.88;43.17
29383;BME280;16365;51.598;7.668;2023-06-01T04:42:40;101585.13;;;17.89;43.53
29383;BME280;16365;51.598;7.668;2023-06-01T04:45:16;101586.78;;;17.90;43.29
29383;BME280;16365;51.598;7.668;2023-06-01T04:47:42;101579.50;;;17.89;43.42
29383;BME280;16365;51.598;7.668;2023-06-01T04:50:12;101587.47;;;17.87;43.30
29383;BME280;16365;51.598;7.668;2023-06-01T04:52:40;101580.69;;;17.88;43.47
29383;BME280;16365;51.598;7.668;2023-06-01T04:55:08;101580.69;;;17.88;43.62
29383;BME280;16365;51.598;7.668;2023-06-01T04:57:36;101578.69;;;17.88;43.29
29383;BME280;16365;51.598;7.668;2023-06-01T05:00:03;101577.88;;;17.88;43.53
29383;BME280;16365;51.598;7.668;2023-06-01T05:02:34;101577.53;;;17.89;43.08
29383;BME280;16365;51.598;7.668;2023-06-01T05:05:01;101576.34;;;17.90;43.38
29383;BME280;16365;51.598;7.668;2023-06-01T05:07:27;101571.56;;;17.91;43.04
29383;BME280;16365;51.598;7.668;2023-06-01T05:09:54;101569.56;;;17.91;43.48
29383;BME280;16365;51.598;7.668;2023-06-01T05:12:20;101573.66;;;17.94;43.40
29383;BME280;16365;51.598;7.668;2023-06-01T05:14:47;101580.09;;;17.94;43.10
29383;BME280;16365;51.598;7.668;2023-06-01T05:17:13;101586.03;;;17.93;43.19
29383;BME280;16365;51.598;7.668;2023-06-01T05:19:40;101579.59;;;17.92;43.02
29383;BME280;16365;51.598;7.668;2023-06-01T05:22:06;101581.97;;;17.90;43.28
29383;BME280;16365;51.598;7.668;2023-06-01T05:24:36;101575.44;;;17.86;43.79
29383;BME280;16365;51.598;7.668;2023-06-01T05:27:03;101577.06;;;17.87;43.23
29383;BME280;16365;51.598;7.668;2023-06-01T05:29:29;101567.03;;;17.86;43.56
29383;BME280;16365;51.598;7.668;2023-06-01T05:31:56;101568.66;;;17.87;43.68
29383;BME280;16365;51.598;7.668;2023-06-01T05:34:23;101576.69;;;17.89;43.80
29383;BME280;16365;51.598;7.668;2023-06-01T05:36:49;101577.16;;;17.91;43.81
29383;BME280;16365;51.598;7.668;2023-06-01T05:39:16;101568.06;;;17.94;43.50
29383;BME280;16365;51.598;7.668;2023-06-01T05:41:43;101574.91;;;17.96;43.59
29383;BME280;16365;51.598;7.668;2023-06-01T05:44:09;101581.44;;;18.01;43.23
29383;BME280;16365;51.598;7.668;2023-06-01T05:46:35;101578.28;;;18.02;43.02
29383;BME280;16365;51.598;7.668;2023-06-01T05:49:02;101576.28;;;18.03;43.38
29383;BME280;16365;51.598;7.668;2023-06-01T05:51:28;101580.75;;;18.04;43.83
29383;BME280;16365;51.598;7.668;2023-06-01T05:53:55;101590.06;;;18.08;43.72
29383;BME280;16365;51.598;7.668;2023-06-01T05:56:22;101582.13;;;18.10;43.46
29383;BME280;16365;51.598;7.668;2023-06-01T05:58:48;101587.00;;;18.13;43.63
29383;BME280;16365;51.598;7.668;2023-06-01T06:01:20;101577.06;;;18.15;43.70
29383;BME280;16365;51.598;7.668;2023-06-01T06:03:46;101580.31;;;18.17;43.34
29383;BME280;16365;51.598;7.668;2023-06-01T06:06:13;101585.22;;;18.20;43.14
29383;BME280;16365;51.598;7.668;2023-06-01T06:08:40;101587.66;;;18.22;43.10
29383;BME280;16365;51.598;7.668;2023-06-01T06:11:06;101582.50;;;18.24;43.18
29383;BME280;16365;51.598;7.668;2023-06-01T06:13:34;101585.78;;;18.26;43.16
29383;BME280;16365;51.598;7.668;2023-06-01T06:16:01;101589.38;;;18.27;43.33
29383;BME280;16365;51.598;7.668;2023-06-01T06:18:28;101593.00;;;18.27;43.29
29383;BME280;16365;51.598;7.668;2023-06-01T06:20:54;101577.34;;;18.26;43.18
29383;BME280;16365;51.598;7.668;2023-06-01T06:23:20;101585.78;;;18.26;42.89
29383;BME280;16365;51.598;7.668;2023-06-01T06:25:49;101584.13;;;18.25;42.89
29383;BME280;16365;51.598;7.668;2023-06-01T06:28:15;101589.75;;;18.25;42.94
29383;BME280;16365;51.598;7.668;2023-06-01T06:30:42;101588.94;;;18.24;43.12
29383;BME280;16365;51.598;7.668;2023-06-01T06:33:08;101580.03;;;18.22;43.03
29383;BME280;16365;51.598;7.668;2023-06-01T06:35:42;101578.41;;;18.21;42.97
29383;BME280;16365;51.598;7.668;2023-06-01T06:38:09;101584.03;;;18.21;42.86
29383;BME280;16365;51.598;7.668;2023-06-01T06:40:36;101581.69;;;18.23;43.22
29383;BME280;16365;51.598;7.668;2023-06-01T06:43:02;101584.13;;;18.25;43.34
29383;BME280;16365;51.598;7.668;2023-06-01T06:45:28;101581.78;;;18.27;43.15
29383;BME280;16365;51.598;7.668;2023-06-01T06:47:55;101587.88;;;18.29;43.24
29383;BME280;16365;51.598;7.668;2023-06-01T06:50:22;101589.13;;;18.32;43.20
29383;BME280;16365;51.598;7.668;2023-06-01T06:52:48;101585.97;;;18.33;42.75
29383;BME280;16365;51.598;7.668;2023-06-01T06:55:14;101596.47;;;18.36;43.38
29383;BME280;16365;51.598;7.668;2023-06-01T06:57:41;101594.56;;;18.40;42.98
29383;BME280;16365;51.598;7.668;2023-06-01T07:00:08;101601.13;;;18.44;43.06
29383;BME280;16365;51.598;7.668;2023-06-01T07:02:41;101602.41;;;18.47;43.02
29383;BME280;16365;51.598;7.668;2023-06-01T07:05:08;101603.66;;;18.49;42.66
29383;BME280;16365;51.598;7.668;2023-06-01T07:07:37;101601.28;;;18.52;42.64
29383;BME280;16365;51.598;7.668;2023-06-01T07:10:04;101603.38;;;18.55;42.78
29383;BME280;16365;51.598;7.668;2023-06-01T07:12:32;101602.19;;;18.56;42.86
29383;BME280;16365;51.598;7.668;2023-06-01T07:14:58;101600.69;;;18.58;42.60
29383;BME280;16365;51.598;7.668;2023-06-01T07:17:25;101601.94;;;18.61;42.62
29383;BME280;16365;51.598;7.668;2023-06-01T07:19:51;101596.78;;;18.63;42.20
29383;BME280;16365;51.598;7.668;2023-06-01T07:22:18;101595.59;;;18.64;42.68
29383;BME280;16365;51.598;7.668;2023-06-01T07:24:46;101600.50;;;18.67;42.48
29383;BME280;16365;51.598;7.668;2023-06-01T07:27:13;101594.56;;;18.68;42.40
29383;BME280;16365;51.598;7.668;2023-06-01T07:29:40;101602.72;;;18.73;42.43
29383;BME280;16365;51.598;7.668;2023-06-01T07:32:07;101598.38;;;18.76;42.52
29383;BME280;16365;51.598;7.668;2023-06-01T07:34:34;101604.06;;;18.80;42.34
29383;BME280;16365;51.598;7.668;2023-06-01T07:37:01;101603.78;;;18.85;42.61
29383;BME280;16365;51.598;7.668;2023-06-01T07:39:42;101599.88;;;18.89;42.22
29383;BME280;16365;51.598;7.668;2023-06-01T07:42:09;101611.22;;;18.93;42.08
29383;BME280;16365;51.598;7.668;2023-06-01T07:44:35;101615.31;;;18.95;41.71
29383;BME280;16365;51.598;7.668;2023-06-01T07:47:02;101612.84;;;18.94;41.87
29383;BME280;16365;51.598;7.668;2023-06-01T07:49:28;101609.31;;;18.97;41.75
29383;BME280;16365;51.598;7.668;2023-06-01T07:51:55;101610.16;;;18.97;42.43
29383;BME280;16365;51.598;7.668;2023-06-01T07:54:23;101609.44;;;19.00;42.06
29383;BME280;16365;51.598;7.668;2023-06-01T07:56:49;101610.31;;;19.05;42.23
29383;BME280;16365;51.598;7.668;2023-06-01T07:59:16;101601.97;;;19.08;42.09
29383;BME280;16365;51.598;7.668;2023-06-01T08:01:42;101608.88;;;19.11;41.79
29383;BME280;16365;51.598;7.668;2023-06-01T08:04:09;101607.41;;;19.17;42.05
29383;BME280;16365;51.598;7.668;2023-06-01T08:06:37;101603.03;;;19.19;41.53
29383;BME280;16365;51.598;7.668;2023-06-01T08:09:04;101609.13;;;19.21;41.58
29383;BME280;16365;51.598;7.668;2023-06-01T08:11:32;101602.69;;;19.21;41.56
29383;BME280;16365;51.598;7.668;2023-06-01T08:13:59;101609.94;;;19.22;41.51
29383;BME280;16365;51.598;7.668;2023-06-01T08:16:31;101602.69;;;19.21;41.46
29383;BME280;16365;51.598;7.668;2023-06-01T08:18:58;101607.13;;;19.22;41.36
29383;BME280;16365;51.598;7.668;2023-06-01T08:21:25;101607.56;;;19.24;41.20
29383;BME280;16365;51.598;7.668;2023-06-01T08:23:53;101609.66;;;19.27;41.33
29383;BME280;16365;51.598;7.668;2023-06-01T08:26:22;101602.94;;;19.32;42.14
29383;BME280;16365;51.598;7.668;2023-06-01T08:28:49;101594.31;;;19.40;42.05
29383;BME280;16365;51.598;7.668;2023-06-01T08:31:23;101593.34;;;19.52;41.81
29383;BME280;16365;51.598;7.668;2023-06-01T08:33:51;101586.53;;;19.69;41.72
29383;BME280;16365;51.598;7.668;2023-06-01T08:36:19;101588.88;;;19.86;41.67
29383;BME280;16365;51.598;7.668;2023-06-01T08:38:46;101583.25;;;20.06;41.71
29383;BME280;16365;51.598;7.668;2023-06-01T08:41:58;101581.22;;;20.25;41.12
29383;BME280;16365;51.598;7.668;2023-06-01T08:44:34;101580.09;;;20.49;40.55
29383;BME280;16365;51.598;7.668;2023-06-01T08:47:04;101578.78;;;20.66;40.50
29383;BME280;16365;51.598;7.668;2023-06-01T08:49:32;101570.94;;;20.79;40.90
29383;BME280;16365;51.598;7.668;2023-06-01T08:52:04;101564.72;;;20.93;40.01
29383;BME280;16365;51.598;7.668;2023-06-01T08:54:32;101565.41;;;21.09;40.40
29383;BME280;16365;51.598;7.668;2023-06-01T08:56:59;101570.88;;;21.25;40.45
29383;BME280;16365;51.598;7.668;2023-06-01T08:59:32;101555.81;;;21.40;39.46
29383;BME280;16365;51.598;7.668;2023-06-01T09:01:58;101556.00;;;21.54;39.68
29383;BME280;16365;51.598;7.668;2023-06-01T09:04:28;101550.50;;;21.65;39.00
29383;BME280;16365;51.598;7.668;2023-06-01T09:06:58;101553.09;;;21.77;39.26
29383;BME280;16365;51.598;7.668;2023-06-01T09:09:24;101547.97;;;21.87;39.10
29383;BME280;16365;51.598;7.668;2023-06-01T09:14:47;101551.81;;;22.05;39.22
29383;BME280;16365;51.598;7.668;2023-06-01T09:17:15;101540.59;;;22.12;39.01
29383;BME280;16365;51.598;7.668;2023-06-01T09:19:50;101547.97;;;22.20;38.53
29383;BME280;16365;51.598;7.668;2023-06-01T09:22:17;101543.19;;;22.28;38.43
29383;BME280;16365;51.598;7.668;2023-06-01T09:24:55;101546.81;;;22.28;37.49
29383;BME280;16365;51.598;7.668;2023-06-01T09:27:22;101539.19;;;22.32;37.33
29383;BME280;16365;51.598;7.668;2023-06-01T09:29:56;101533.91;;;22.27;37.14
29383;BME280;16365;51.598;7.668;2023-06-01T09:32:25;101533.47;;;22.25;37.74
29383;BME280;16365;51.598;7.668;2023-06-01T09:34:52;101539.91;;;22.22;38.01
29383;BME280;16365;51.598;7.668;2023-06-01T09:37:21;101526.59;;;22.23;37.91
29383;BME280;16365;51.598;7.668;2023-06-01T09:39:48;101524.19;;;22.25;37.81
29383;BME280;16365;51.598;7.668;2023-06-01T09:42:14;101527.88;;;22.29;37.70
29383;BME280;16365;51.598;7.668;2023-06-01T09:44:42;101528.69;;;22.29;37.57
29383;BME280;16365;51.598;7.668;2023-06-01T09:47:10;101531.13;;;22.31;37.52
29383;BME280;16365;51.598;7.668;2023-06-01T09:49:43;101519.78;;;22.27;37.28
29383;BME280;16365;51.598;7.668;2023-06-01T09:52:15;101526.22;;;22.28;37.42
29383;BME280;16365;51.598;7.668;2023-06-01T09:54:49;101524.19;;;22.25;37.38
29383;BME280;16365;51.598;7.668;2023-06-01T09:57:24;101527.38;;;22.23;37.10
29383;BME280;16365;51.598;7.668;2023-06-01T09:59:51;101518.09;;;22.23;37.59
29383;BME280;16365;51.598;7.668;2023-06-01T10:02:19;101529.81;;;22.21;38.00
29383;BME280;16365;51.598;7.668;2023-06-01T10:04:52;101522.53;;;22.20;37.71
29383;BME280;16365;51.598;7.668;2023-06-01T10:07:28;101508.88;;;22.26;38.00
29383;BME280;16365;51.598;7.668;2023-06-01T10:09:58;101510.53;;;22.30;38.23
29383;BME280;16365;51.598;7.668;2023-06-01T10:12:25;101513.34;;;22.30;38.13
29383;BME280;16365;51.598;7.668;2023-06-01T10:14:54;101517.84;;;22.35;38.04
29383;BME280;16365;51.598;7.668;2023-06-01T10:17:22;101522.69;;;22.38;37.69
29383;BME280;16365;51.598;7.668;2023-06-01T10:19:51;101520.25;;;22.37;37.73
29383;BME280;16365;51.598;7.668;2023-06-01T10:22:18;101519.84;;;22.35;38.29
29383;BME280;16365;51.598;7.668;2023-06-01T10:24:44;101510.97;;;22.36;38.03
29383;BME280;16365;51.598;7.668;2023-06-01T10:27:27;101511.75;;;22.33;38.16
29383;BME280;16365;51.598;7.668;2023-06-01T10:29:56;101510.16;;;22.36;38.30
29383;BME280;16365;51.598;7.668;2023-06-01T10:35:05;101508.56;;;22.38;38.33
29383;BME280;16365;51.598;7.668;2023-06-01T10:37:31;101500.53;;;22.40;38.26
29383;BME280;16365;51.598;7.668;2023-06-01T10:42:43;101504.16;;;22.41;38.20
29383;BME280;16365;51.598;7.668;2023-06-01T10:45:38;101509.38;;;22.35;38.05
29383;BME280;16365;51.598;7.668;2023-06-01T10:48:08;101502.91;;;22.38;38.43
29383;BME280;16365;51.598;7.668;2023-06-01T10:50:38;101507.34;;;22.36;38.33
29383;BME280;16365;51.598;7.668;2023-06-01T10:53:25;101508.97;;;22.37;38.31
29383;BME280;16365;51.598;7.668;2023-06-01T10:56:21;101506.91;;;22.33;38.15
29383;BME280;16365;51.598;7.668;2023-06-01T11:01:44;101502.78;;;22.24;37.93
29383;BME280;16365;51.598;7.668;2023-06-01T11:04:12;101502.31;;;22.18;38.47
29383;BME280;16365;51.598;7.668;2023-06-01T11:06:40;101502.69;;;22.13;38.74
29383;BME280;16365;51.598;7.668;2023-06-01T11:09:11;101500.63;;;22.10;38.63
29383;BME280;16365;51.598;7.668;2023-06-01T11:14:26;101496.53;;;22.07;38.74
29383;BME280;16365;51.598;7.668;2023-06-01T11:16:53;101500.19;;;22.08;38.59
29383;BME280;16365;51.598;7.668;2023-06-01T11:19:25;101504.16;;;22.03;38.56
29383;BME280;16365;51.598;7.668;2023-06-01T11:21:59;101507.34;;;21.98;38.63
29383;BME280;16365;51.598;7.668;2023-06-01T11:24:32;101502.47;;;21.95;38.95
29383;BME280;16365;51.598;7.668;2023-06-01T11:27:05;101498.00;;;21.94;39.00
29383;BME280;16365;51.598;7.668;2023-06-01T11:29:33;101506.53;;;21.98;39.25
29383;BME280;16365;51.598;7.668;2023-06-01T11:32:02;101510.59;;;22.00;38.96
29383;BME280;16365;51.598;7.668;2023-06-01T11:34:40;101509.41;;;22.01;38.59
29383;BME280;16365;51.598;7.668;2023-06-01T11:37:19;101502.53;;;22.02;38.89
29383;BME280;16365;51.598;7.668;2023-06-01T11:39:46;101496.53;;;22.07;38.61
29383;BME280;16365;51.598;7.668;2023-06-01T11:42:14;101495.34;;;22.08;38.80
29383;BME280;16365;51.598;7.668;2023-06-01T11:44:45;101491.66;;;22.04;38.80
29383;BME280;16365;51.598;7.668;2023-06-01T11:47:15;101499.31;;;22.04;39.03
29383;BME280;16365;51.598;7.668;2023-06-01T11:52:11;101494.47;;;22.01;39.35
29383;BME280;16365;51.598;7.668;2023-06-01T11:54:37;101490.44;;;22.02;39.47
29383;BME280;16365;51.598;7.668;2023-06-01T11:57:04;101492.06;;;22.03;39.11
29383;BME280;16365;51.598;7.668;2023-06-01T11:59:41;101492.06;;;22.03;39.07
29383;BME280;16365;51.598;7.668;2023-06-01T12:02:20;101494.13;;;22.06;39.51
29383;BME280;16365;51.598;7.668;2023-06-01T12:05:01;101491.69;;;22.08;39.25
29383;BME280;16365;51.598;7.668;2023-06-01T12:07:48;101493.78;;;22.11;39.36
29383;BME280;16365;51.598;7.668;2023-06-01T12:10:18;101492.66;;;22.19;39.30
29383;BME280;16365;51.598;7.668;2023-06-01T12:12:46;101486.22;;;22.22;39.26
29383;BME280;16365;51.598;7.668;2023-06-01T12:15:14;101491.91;;;22.26;39.40
29383;BME280;16365;51.598;7.668;2023-06-01T12:18:08;101489.09;;;22.26;39.04
29383;BME280;16365;51.598;7.668;2023-06-01T12:20:37;101495.59;;;22.33;39.08
29383;BME280;16365;51.598;7.668;2023-06-01T12:23:13;101495.19;;;22.31;39.16
29383;BME280;16365;51.598;7.668;2023-06-01T12:25:53;101481.47;;;22.33;39.04
29383;BME280;16365;51.598;7.668;2023-06-01T12:28:22;101481.91;;;22.36;39.25
29383;BME280;16365;51.598;7.668;2023-06-01T12:30:49;101479.13;;;22.39;39.57
29383;BME280;16365;51.598;7.668;2023-06-01T12:33:35;101476.66;;;22.38;39.65
29383;BME280;16365;51.598;7.668;2023-06-01T12:36:03;101478.38;;;22.46;39.37
29383;BME280;16365;51.598;7.668;2023-06-01T12:41:15;101473.59;;;22.53;39.30
29383;BME280;16365;51.598;7.668;2023-06-01T12:43:45;101480.06;;;22.57;39.06
29383;BME280;16365;51.598;7.668;2023-06-01T12:46:19;101479.69;;;22.59;38.62
29383;BME280;16365;51.598;7.668;2023-06-01T12:48:46;101474.88;;;22.63;38.87
29383;BME280;16365;51.598;7.668;2023-06-01T12:51:13;101472.44;;;22.62;38.76
29383;BME280;16365;51.598;7.668;2023-06-01T12:53:40;101475.25;;;22.62;39.12
29383;BME280;16365;51.598;7.668;2023-06-01T12:56:09;101472.88;;;22.64;39.15
29383;BME280;16365;51.598;7.668;2023-06-01T12:58:36;101472.88;;;22.67;39.04
29383;BME280;16365;51.598;7.668;2023-06-01T13:01:03;101471.69;;;22.68;38.69
29383;BME280;16365;51.598;7.668;2023-06-01T13:03:29;101469.28;;;22.70;38.72
29383;BME280;16365;51.598;7.668;2023-06-01T13:05:56;101465.22;;;22.68;38.65
29383;BME280;16365;51.598;7.668;2023-06-01T13:08:23;101468.44;;;22.66;39.03
29383;BME280;16365;51.598;7.668;2023-06-01T13:10:49;101466.81;;;22.65;39.41
29383;BME280;16365;51.598;7.668;2023-06-01T13:13:17;101464.38;;;22.67;39.17
29383;BME280;16365;51.598;7.668;2023-06-01T13:15:44;101467.66;;;22.69;39.23
29383;BME280;16365;51.598;7.668;2023-06-01T13:18:11;101462.41;;;22.71;39.05
29383;BME280;16365;51.598;7.668;2023-06-01T13:20:39;101463.22;;;22.72;38.52
29383;BME280;16365;51.598;7.668;2023-06-01T13:23:05;101463.63;;;22.70;38.65
29383;BME280;16365;51.598;7.668;2023-06-01T13:25:33;101467.63;;;22.66;38.87
29383;BME280;16365;51.598;7.668;2023-06-01T13:28:00;101465.16;;;22.61;38.77
29383;BME280;16365;51.598;7.668;2023-06-01T13:30:27;101470.41;;;22.58;38.99